METAR Data
IDs: Format: Raw Decoded Include TAF

Data at: 1240 UTC 23 Sep 2018

KPOF 231153Z AUTO 04005KT 9SM OVC008 17/17 A3004 RMK AO2 SLP172 60002 70108 T01670167 10167 20161 53003 $
KPOF 231053Z AUTO 03004KT 10SM OVC006 16/16 A3004 RMK AO2 RAE0958 SLP170 P0000 T01610161 $
KPOF 230953Z AUTO 03004KT 10SM -RA OVC007 16/16 A3003 RMK AO2 RAB16 SLP169 P0002 T01610161 $
KPOF 230853Z AUTO 03005KT 10SM OVC008 16/16 A3004 RMK AO2 SLP169 60000 T01610161 55005 $
KPOF 230753Z AUTO 05005KT 10SM BKN008 OVC013 16/16 A3003 RMK AO2 CIG 006V010 SLP166 T01610161 $
KPOF 230653Z AUTO 03004KT 10SM OVC012 16/16 A3005 RMK AO2 RAE13 SLP175 P0000 T01610161 $
KPOF 230637Z AUTO 02005KT 10SM OVC012 16/16 A3005 RMK AO2 RAE13 P0000 T01610161 $
KPOF 230553Z AUTO 05004KT 4SM -RA BR OVC018 16/16 A3005 RMK AO2 RAB36 SLP174 P0001 60006 T01610161 10172 20161 402060150 58015 $
KPOF 230535Z AUTO 05004KT 10SM SCT012 OVC020 16/16 A3006 RMK AO2 T01610161 $
KPOF 230504Z AUTO 01006KT 9SM BKN012 OVC022 17/16 A3008 RMK AO2 T01670161 $
KPOF 230453Z AUTO 01005KT 10SM SCT012 OVC022 17/16 A3008 RMK AO2 RAE42 SLP184 P0002 T01670161 $
KPOF 230445Z AUTO 05006KT 10SM SCT012 OVC022 17/16 A3007 RMK AO2 RAE42 P0002 T01670161 $
KPOF 230416Z AUTO 02006KT 7SM -RA BKN012 OVC025 17/16 A3008 RMK AO2 P0001 T01670161 $
KPOF 230353Z AUTO 05006KT 8SM -RA FEW014 OVC025 17/16 A3008 RMK AO2 RAB42 SLP185 P0000 T01670161 $
KPOF 230253Z AUTO 03007KT 10SM BKN021 OVC042 17/16 A3009 RMK AO2 SLP190 60003 T01670161 50001 $
KPOF 230153Z AUTO 03008KT 10SM FEW014 OVC021 17/16 A3010 RMK AO2 SLP191 P0002 T01670161 $
KPOF 230053Z AUTO 03008KT 10SM OVC017 17/17 A3010 RMK AO2 RAB32E49 SLP191 P0001 T01670167 $
KPOF 230032Z AUTO 03006KT 9SM -RA OVC016 17/17 A3009 RMK AO2 RAB32 P0000 T01670167 $
KPOF 222353Z AUTO 02007KT 10SM OVC013 17/17 A3009 RMK AO2 SLP189 60018 T01720167 10172 20167 58001 $
KPOF 222253Z AUTO 02008KT 10SM OVC012 17/17 A3010 RMK AO2 RAE03 SLP190 P0000 T01720167 $
KPOF 222153Z AUTO 03007KT 8SM -RA OVC011 17/17 A3009 RMK AO2 SLP188 P0003 T01720167 $
KPOF 222140Z AUTO 03007KT 5SM -RA BR BKN009 OVC014 17/17 A3009 RMK AO2 CIG 005V012 P0003 T01720172 $
KPOF 222053Z AUTO 04008KT 4SM -RA BR SCT007 BKN013 OVC060 17/17 A3009 RMK AO2 SLP189 P0005 60015 T01720172 57011 $
KPOF 222001Z AUTO 03008KT 3SM -RA BR BKN008 OVC013 17/17 A3011 RMK AO2 P0001 T01720172 $
KPOF 221953Z AUTO 03008KT 2 1/2SM RA BR SCT007 OVC012 17/17 A3011 RMK AO2 SLP194 P0005 T01720172 $
KPOF 221948Z AUTO 04008KT 2SM -RA BR BKN009 OVC014 17/17 A3011 RMK AO2 P0004 $
KPOF 221931Z AUTO 04007KT 2SM -RA BR SCT008 BKN013 OVC027 17/17 A3012 RMK AO2 P0002 T01720172 $
KPOF 221853Z AUTO 02009KT 3SM -RA BR OVC006 17/17 A3012 RMK AO2 SLP198 P0005 T01720172 $
KPOF 221801Z AUTO 03009KT 3SM -RA BR OVC005 17/17 A3014 RMK AO2 P0001 T01670167 $
KPOF 221753Z AUTO 03007KT 2 1/2SM -RA BR BKN005 OVC050 17/17 A3015 RMK AO2 SLP206 P0008 60082 T01670167 10167 20150 58006 $
KPOF 221751Z AUTO 02007KT 2 1/2SM -RA BR BKN005 OVC050 17/17 A3015 RMK AO2 P0008 $
KPOF 221732Z AUTO 03006KT 3SM -RA BR BKN005 BKN039 OVC050 16/16 A3015 RMK AO2 P0006 T01610161 $
KPOF 221702Z AUTO 02008KT 2 1/2SM -RA BR SCT007 BKN033 OVC045 16/16 A3017 RMK AO2 P0001 T01610161 $
KPOF 221700Z AUTO 02007KT 2 1/2SM -RA BR BKN007 BKN028 OVC055 16/16 A3017 RMK AO2 P0001 T01610161 $
KPOF 221653Z AUTO 02009KT 1 3/4SM RA BR BKN007 BKN026 OVC055 16/16 A3017 RMK AO2 SLP213 P0023 T01610161 $
KPOF 221629Z AUTO 03007KT 1 1/2SM +RA BR OVC009 16/16 A3018 RMK AO2 P0013 T01560156 $
KPOF 221622Z AUTO 04006KT 2SM +RA BR BKN009 OVC013 16/16 A3018 RMK AO2 P0010 T01610161 $
KPOF 221553Z AUTO 03007KT 4SM RA BR BKN009 BKN050 OVC070 16/16 A3017 RMK AO2 SLP213 P0020 T01560156 $
KPOF 221523Z AUTO 03009KT 2SM RA BR FEW011 SCT048 OVC065 16/16 A3016 RMK AO2 P0008 T01560156 $
KPOF 221453Z AUTO 04009G17KT 4SM RA BR FEW060 BKN070 OVC090 16/16 A3016 RMK AO2 SLP210 P0007 60031 T01560156 58003 $
KPOF 221353Z AUTO 02009KT 4SM RA BR BKN060 OVC070 15/15 A3017 RMK AO2 SLP214 P0014 T01500150 $
KPOF 221341Z AUTO 02007KT 2SM RA BR OVC060 16/16 A3017 RMK AO2 P0012 T01560156
KPOF 221333Z AUTO 01007KT 3SM RA BR OVC055 16/16 A3017 RMK AO2 P0009 T01560156
KPOF 221324Z AUTO 36004KT 2 1/2SM RA BR OVC055 16/16 A3018 RMK AO2 P0006 T01560156
KPOF 221253Z AUTO 35007KT 10SM -RA FEW047 OVC060 16/16 A3017 RMK AO2 SLP213 P0010 T01560156
KPOF 221153Z AUTO 04009KT 3SM +RA BR FEW045 OVC055 15/15 A3015 RMK AO2 SLP206 P0020 60044 70048 T01500150 10206 20150 51003
KPOF 221053Z AUTO 03009KT 7SM -RA FEW065 SCT075 OVC110 16/15 A3014 RMK AO2 SLP204 P0007 T01560150
KPOF 220953Z AUTO 03008KT 10SM -RA BKN060 OVC080 16/15 A3015 RMK AO2 SLP204 P0005 T01610150
KPOF 220853Z AUTO 01009KT 10SM -RA OVC060 17/16 A3014 RMK AO2 SLP202 P0004 60012 T01670156 58000
KPOF 220753Z AUTO 02008KT 9SM -RA BKN070 OVC085 17/16 A3016 RMK AO2 RAB03 SLP208 P0008 T01720156
KPOF 220653Z AUTO 02013G22KT 10SM BKN060 OVC075 21/13 A3013 RMK AO2 RAE0558 SLP198 P0000 T02060133
KPOF 220553Z AUTO 01014G20KT 10SM -RA OVC055 21/14 A3014 RMK AO2 RAB45 SLP200 P0000 60001 T02110139 10250 20206 403170200 51012
KPOF 220453Z AUTO 03008G16KT 10SM FEW055 FEW120 22/16 A3014 RMK AO2 SLP200 T02220156
KPOF 220353Z AUTO 03010G19KT 10SM CLR 23/18 A3013 RMK AO2 SLP199 T02330178
KPOF 220253Z AUTO 01008KT 10SM CLR 24/20 A3010 RMK AO2 SLP188 60001 T02440200 51017
KPOF 220153Z AUTO 34006KT 10SM CLR 24/21 A3009 RMK AO2 SLP184 T02390211
KPOF 220053Z AUTO 35005KT 10SM CLR 24/21 A3007 RMK AO2 SLP177 P0001 T02390211